sensor_id;sensor_type;location;lat;lon;timestamp;pressure;altitude;pressure_sealevel;temperature;humidity
77975;BME280;67164;51.202;0.278;2023-02-15T00:01:14;102417.04;;;22.20;33.43
77975;BME280;67164;51.202;0.278;2023-02-15T00:03:39;102414.49;;;22.17;33.46
77975;BME280;67164;51.202;0.278;2023-02-15T00:06:05;102415.10;;;21.85;33.51
77975;BME280;67164;51.202;0.278;2023-02-15T00:08:31;102417.80;;;21.76;33.52
77975;BME280;67164;51.202;0.278;2023-02-15T00:11:03;102412.33;;;21.77;33.65
77975;BME280;67164;51.202;0.278;2023-02-15T00:13:22;102412.74;;;22.02;33.51
77975;BME280;67164;51.202;0.278;2023-02-15T00:15:47;102403.14;;;21.77;33.50
77975;BME280;67164;51.202;0.278;2023-02-15T00:18:14;102405.15;;;21.93;33.56
77975;BME280;67164;51.202;0.278;2023-02-15T00:20:38;102404.15;;;21.62;33.54
77975;BME280;67164;51.202;0.278;2023-02-15T00:23:04;102406.10;;;21.80;33.74
77975;BME280;67164;51.202;0.278;2023-02-15T00:25:29;102401.00;;;21.55;33.72
77975;BME280;67164;51.202;0.278;2023-02-15T00:27:54;102395.96;;;21.76;33.71
77975;BME280;67164;51.202;0.278;2023-02-15T00:30:20;102391.10;;;21.69;33.57
77975;BME280;67164;51.202;0.278;2023-02-15T00:32:47;102386.18;;;21.67;33.57
77975;BME280;67164;51.202;0.278;2023-02-15T00:35:10;102380.83;;;21.40;33.62
77975;BME280;67164;51.202;0.278;2023-02-15T00:37:40;102376.98;;;21.36;33.76
77975;BME280;67164;51.202;0.278;2023-02-15T00:40:01;102373.80;;;21.62;33.72
77975;BME280;67164;51.202;0.278;2023-02-15T00:42:26;102366.95;;;21.83;33.64
77975;BME280;67164;51.202;0.278;2023-02-15T00:44:51;102359.12;;;21.74;33.81
77975;BME280;67164;51.202;0.278;2023-02-15T00:47:16;102358.32;;;21.48;33.69
77975;BME280;67164;51.202;0.278;2023-02-15T00:49:42;102354.83;;;21.71;33.83
77975;BME280;67164;51.202;0.278;2023-02-15T00:52:07;102360.85;;;21.67;33.68
77975;BME280;67164;51.202;0.278;2023-02-15T00:54:32;102362.05;;;21.61;33.86
77975;BME280;67164;51.202;0.278;2023-02-15T00:56:58;102355.35;;;21.40;33.80
77975;BME280;67164;51.202;0.278;2023-02-15T00:59:23;102344.90;;;21.18;33.80
77975;BME280;67164;51.202;0.278;2023-02-15T01:01:49;102340.86;;;21.07;33.84
77975;BME280;67164;51.202;0.278;2023-02-15T01:04:15;102347.97;;;21.32;34.00
77975;BME280;67164;51.202;0.278;2023-02-15T01:06:40;102355.68;;;21.46;33.87
77975;BME280;67164;51.202;0.278;2023-02-15T01:09:05;102354.57;;;21.21;33.85
77975;BME280;67164;51.202;0.278;2023-02-15T01:11:31;102349.00;;;21.47;33.94
77975;BME280;67164;51.202;0.278;2023-02-15T01:13:57;102343.30;;;21.38;33.90
77975;BME280;67164;51.202;0.278;2023-02-15T01:16:22;102344.16;;;21.36;33.88
77975;BME280;67164;51.202;0.278;2023-02-15T01:18:47;102339.95;;;21.38;33.88
77975;BME280;67164;51.202;0.278;2023-02-15T01:21:14;102335.70;;;21.27;33.86
77975;BME280;67164;51.202;0.278;2023-02-15T01:23:37;102328.74;;;21.02;33.82
77975;BME280;67164;51.202;0.278;2023-02-15T01:26:02;102323.66;;;21.24;33.97
77975;BME280;67164;51.202;0.278;2023-02-15T01:28:28;102324.89;;;21.23;33.89
77975;BME280;67164;51.202;0.278;2023-02-15T01:30:53;102326.90;;;21.16;33.83
77975;BME280;67164;51.202;0.278;2023-02-15T01:33:18;102318.73;;;21.10;33.89
77975;BME280;67164;51.202;0.278;2023-02-15T01:35:45;102314.05;;;21.06;33.85
77975;BME280;67164;51.202;0.278;2023-02-15T01:38:09;102314.55;;;21.07;33.91
77975;BME280;67164;51.202;0.278;2023-02-15T01:40:35;102309.59;;;20.99;33.91
77975;BME280;67164;51.202;0.278;2023-02-15T01:42:59;102301.05;;;20.92;33.96
77975;BME280;67164;51.202;0.278;2023-02-15T01:45:27;102298.48;;;20.92;34.04
77975;BME280;67164;51.202;0.278;2023-02-15T01:47:54;102296.82;;;20.71;34.12
77975;BME280;67164;51.202;0.278;2023-02-15T01:50:17;102296.48;;;20.86;34.01
77975;BME280;67164;51.202;0.278;2023-02-15T01:52:45;102294.12;;;21.04;33.90
77975;BME280;67164;51.202;0.278;2023-02-15T01:55:10;102293.84;;;20.83;33.92
77975;BME280;67164;51.202;0.278;2023-02-15T01:57:30;102293.24;;;21.01;33.88
77975;BME280;67164;51.202;0.278;2023-02-15T01:59:59;102294.52;;;20.74;33.87
77975;BME280;67164;51.202;0.278;2023-02-15T02:02:22;102291.26;;;20.71;33.90
77975;BME280;67164;51.202;0.278;2023-02-15T02:04:49;102287.35;;;20.92;33.82
77975;BME280;67164;51.202;0.278;2023-02-15T02:07:15;102290.56;;;20.91;33.94
77975;BME280;67164;51.202;0.278;2023-02-15T02:09:38;102283.47;;;20.66;33.86
77975;BME280;67164;51.202;0.278;2023-02-15T02:12:04;102277.75;;;20.86;33.95
77975;BME280;67164;51.202;0.278;2023-02-15T02:14:29;102273.58;;;20.65;33.91
77975;BME280;67164;51.202;0.278;2023-02-15T02:17:02;102271.25;;;20.53;33.86
77975;BME280;67164;51.202;0.278;2023-02-15T02:22:05;102265.43;;;20.79;33.75
77975;BME280;67164;51.202;0.278;2023-02-15T02:31:40;102252.75;;;20.56;33.75
77975;BME280;67164;51.202;0.278;2023-02-15T02:33:59;102250.49;;;20.73;33.84
77975;BME280;67164;51.202;0.278;2023-02-15T02:36:22;102242.40;;;20.65;33.74
77975;BME280;67164;51.202;0.278;2023-02-15T02:38:51;102238.91;;;20.65;33.81
77975;BME280;67164;51.202;0.278;2023-02-15T02:41:13;102233.44;;;20.57;33.77
77975;BME280;67164;51.202;0.278;2023-02-15T02:43:37;102232.63;;;20.47;33.88
77975;BME280;67164;51.202;0.278;2023-02-15T02:46:02;102230.30;;;20.42;33.90
77975;BME280;67164;51.202;0.278;2023-02-15T02:48:27;102221.47;;;20.75;33.82
77975;BME280;67164;51.202;0.278;2023-02-15T02:50:50;102221.51;;;20.40;33.88
77975;BME280;67164;51.202;0.278;2023-02-15T02:53:15;102218.89;;;20.40;33.88
77975;BME280;67164;51.202;0.278;2023-02-15T02:55:43;102214.65;;;20.17;33.86
77975;BME280;67164;51.202;0.278;2023-02-15T02:58:07;102217.29;;;20.62;33.91
77975;BME280;67164;51.202;0.278;2023-02-15T03:00:33;102220.24;;;20.10;33.85
77975;BME280;67164;51.202;0.278;2023-02-15T03:03:01;102217.05;;;20.54;33.85
77975;BME280;67164;51.202;0.278;2023-02-15T03:05:25;102219.88;;;20.47;33.86
77975;BME280;67164;51.202;0.278;2023-02-15T03:07:50;102220.40;;;20.11;33.89
77975;BME280;67164;51.202;0.278;2023-02-15T03:10:12;102214.17;;;20.23;33.81
77975;BME280;67164;51.202;0.278;2023-02-15T03:12:39;102215.47;;;20.02;33.85
77975;BME280;67164;51.202;0.278;2023-02-15T03:15:06;102216.01;;;20.47;33.91
77975;BME280;67164;51.202;0.278;2023-02-15T03:17:32;102218.45;;;20.20;33.93
77975;BME280;67164;51.202;0.278;2023-02-15T03:19:57;102216.58;;;20.15;33.96
77975;BME280;67164;51.202;0.278;2023-02-15T03:22:23;102214.32;;;20.40;33.80
77975;BME280;67164;51.202;0.278;2023-02-15T03:24:50;102209.31;;;20.29;33.78
77975;BME280;67164;51.202;0.278;2023-02-15T03:27:13;102212.60;;;20.33;33.87
77975;BME280;67164;51.202;0.278;2023-02-15T03:29:36;102206.69;;;20.29;33.90
77975;BME280;67164;51.202;0.278;2023-02-15T03:32:03;102199.48;;;20.05;33.89
77975;BME280;67164;51.202;0.278;2023-02-15T03:34:26;102198.31;;;20.21;33.98
77975;BME280;67164;51.202;0.278;2023-02-15T03:36:57;102196.91;;;20.03;33.94
77975;BME280;67164;51.202;0.278;2023-02-15T03:39:20;102194.51;;;20.24;33.86
77975;BME280;67164;51.202;0.278;2023-02-15T03:41:49;102191.09;;;20.20;33.88
77975;BME280;67164;51.202;0.278;2023-02-15T03:44:13;102192.78;;;19.96;33.88
77975;BME280;67164;51.202;0.278;2023-02-15T03:46:37;102189.50;;;20.12;33.81
77975;BME280;67164;51.202;0.278;2023-02-15T03:49:03;102183.45;;;20.14;33.89
77975;BME280;67164;51.202;0.278;2023-02-15T03:51:29;102180.38;;;20.13;33.94
77975;BME280;67164;51.202;0.278;2023-02-15T03:53:50;102181.57;;;20.10;34.00
77975;BME280;67164;51.202;0.278;2023-02-15T03:56:15;102180.37;;;20.14;33.91
77975;BME280;67164;51.202;0.278;2023-02-15T03:58:40;102177.86;;;20.11;33.95
77975;BME280;67164;51.202;0.278;2023-02-15T04:01:12;102181.67;;;20.10;33.87
77975;BME280;67164;51.202;0.278;2023-02-15T04:03:35;102185.10;;;20.00;34.03
77975;BME280;67164;51.202;0.278;2023-02-15T04:05:56;102184.60;;;20.02;33.90
77975;BME280;67164;51.202;0.278;2023-02-15T04:08:22;102181.93;;;20.00;33.87
77975;BME280;67164;51.202;0.278;2023-02-15T04:10:47;102176.34;;;19.76;33.85
77975;BME280;67164;51.202;0.278;2023-02-15T04:13:13;102179.38;;;19.93;33.96
77975;BME280;67164;51.202;0.278;2023-02-15T04:15:38;102177.77;;;19.96;33.97
77975;BME280;67164;51.202;0.278;2023-02-15T04:18:04;102174.65;;;19.72;34.00
77975;BME280;67164;51.202;0.278;2023-02-15T04:20:29;102173.17;;;19.85;33.95
77975;BME280;67164;51.202;0.278;2023-02-15T04:22:55;102171.09;;;19.85;33.94
77975;BME280;67164;51.202;0.278;2023-02-15T04:25:20;102168.22;;;19.85;34.06
77975;BME280;67164;51.202;0.278;2023-02-15T04:27:48;102174.81;;;19.83;33.97
77975;BME280;67164;51.202;0.278;2023-02-15T04:30:13;102173.52;;;19.82;33.96
77975;BME280;67164;51.202;0.278;2023-02-15T04:32:36;102174.44;;;19.83;33.95
77975;BME280;67164;51.202;0.278;2023-02-15T04:35:03;102172.75;;;19.74;34.06
77975;BME280;67164;51.202;0.278;2023-02-15T04:37:27;102172.91;;;19.79;33.93
77975;BME280;67164;51.202;0.278;2023-02-15T04:39:53;102177.51;;;19.74;33.95
77975;BME280;67164;51.202;0.278;2023-02-15T04:42:18;102174.26;;;19.73;33.93
77975;BME280;67164;51.202;0.278;2023-02-15T04:44:44;102168.53;;;19.72;33.98
77975;BME280;67164;51.202;0.278;2023-02-15T04:47:09;102168.32;;;19.67;34.08
77975;BME280;67164;51.202;0.278;2023-02-15T04:49:35;102168.89;;;19.67;34.10
77975;BME280;67164;51.202;0.278;2023-02-15T04:52:00;102168.74;;;19.65;34.05
77975;BME280;67164;51.202;0.278;2023-02-15T04:54:25;102163.73;;;19.62;34.06
77975;BME280;67164;51.202;0.278;2023-02-15T04:56:50;102163.88;;;19.64;34.02
77975;BME280;67164;51.202;0.278;2023-02-15T04:59:16;102163.09;;;19.57;34.10
77975;BME280;67164;51.202;0.278;2023-02-15T05:01:41;102160.14;;;19.54;34.08
77975;BME280;67164;51.202;0.278;2023-02-15T05:04:06;102159.73;;;19.52;34.09
77975;BME280;67164;51.202;0.278;2023-02-15T05:06:32;102158.03;;;19.54;34.11
77975;BME280;67164;51.202;0.278;2023-02-15T05:08:58;102157.17;;;19.50;34.00
77975;BME280;67164;51.202;0.278;2023-02-15T05:11:24;102150.99;;;19.48;34.08
77975;BME280;67164;51.202;0.278;2023-02-15T05:13:49;102149.14;;;19.50;34.07
77975;BME280;67164;51.202;0.278;2023-02-15T05:16:14;102150.65;;;19.73;33.98
77975;BME280;67164;51.202;0.278;2023-02-15T05:18:39;102149.73;;;19.39;34.19
77975;BME280;67164;51.202;0.278;2023-02-15T05:21:05;102146.60;;;19.66;34.04
77975;BME280;67164;51.202;0.278;2023-02-15T05:23:30;102141.08;;;19.43;34.05
77975;BME280;67164;51.202;0.278;2023-02-15T05:25:56;102137.40;;;19.36;34.07
77975;BME280;67164;51.202;0.278;2023-02-15T05:28:21;102132.13;;;19.86;33.99
77975;BME280;67164;51.202;0.278;2023-02-15T05:30:47;102126.91;;;19.35;34.08
77975;BME280;67164;51.202;0.278;2023-02-15T05:33:12;102123.77;;;19.32;34.07
77975;BME280;67164;51.202;0.278;2023-02-15T05:35:38;102125.58;;;19.34;34.08
77975;BME280;67164;51.202;0.278;2023-02-15T05:38:03;102125.49;;;19.35;33.99
77975;BME280;67164;51.202;0.278;2023-02-15T05:40:29;102120.85;;;19.34;34.04
77975;BME280;67164;51.202;0.278;2023-02-15T05:42:54;102126.07;;;19.32;34.02
77975;BME280;67164;51.202;0.278;2023-02-15T05:45:20;102127.30;;;19.28;34.08
77975;BME280;67164;51.202;0.278;2023-02-15T05:47:46;102129.52;;;19.25;34.07
77975;BME280;67164;51.202;0.278;2023-02-15T05:50:11;102130.47;;;19.43;34.09
77975;BME280;67164;51.202;0.278;2023-02-15T05:52:37;102132.55;;;19.17;34.12
77975;BME280;67164;51.202;0.278;2023-02-15T05:55:01;102129.15;;;19.43;34.09
77975;BME280;67164;51.202;0.278;2023-02-15T05:57:27;102129.85;;;19.37;34.11
77975;BME280;67164;51.202;0.278;2023-02-15T05:59:52;102134.27;;;19.10;34.04
77975;BME280;67164;51.202;0.278;2023-02-15T06:02:17;102132.75;;;19.36;34.09
77975;BME280;67164;51.202;0.278;2023-02-15T06:04:42;102135.82;;;19.37;33.98
77975;BME280;67164;51.202;0.278;2023-02-15T06:07:08;102131.48;;;19.16;34.01
77975;BME280;67164;51.202;0.278;2023-02-15T06:09:33;102130.45;;;19.31;34.15
77975;BME280;67164;51.202;0.278;2023-02-15T06:11:59;102131.03;;;19.32;34.19
77975;BME280;67164;51.202;0.278;2023-02-15T06:14:25;102130.94;;;19.02;34.11
77975;BME280;67164;51.202;0.278;2023-02-15T06:16:51;102133.36;;;19.27;34.02
77975;BME280;67164;51.202;0.278;2023-02-15T06:19:16;102129.35;;;19.06;34.08
77975;BME280;67164;51.202;0.278;2023-02-15T06:21:42;102127.77;;;19.33;34.09
77975;BME280;67164;51.202;0.278;2023-02-15T06:24:08;102128.07;;;19.51;34.13
77975;BME280;67164;51.202;0.278;2023-02-15T06:26:33;102124.72;;;19.25;34.13
77975;BME280;67164;51.202;0.278;2023-02-15T06:28:59;102125.69;;;19.29;33.93
77975;BME280;67164;51.202;0.278;2023-02-15T06:31:24;102121.23;;;19.29;34.06
77975;BME280;67164;51.202;0.278;2023-02-15T06:33:49;102122.34;;;19.46;34.07
77975;BME280;67164;51.202;0.278;2023-02-15T06:36:14;102117.91;;;19.00;34.04
77975;BME280;67164;51.202;0.278;2023-02-15T06:38:39;102116.58;;;19.05;33.95
77975;BME280;67164;51.202;0.278;2023-02-15T06:41:05;102118.27;;;19.07;33.90
77975;BME280;67164;51.202;0.278;2023-02-15T06:43:30;102117.33;;;19.19;34.03
77975;BME280;67164;51.202;0.278;2023-02-15T06:45:56;102121.09;;;19.11;34.07
77975;BME280;67164;51.202;0.278;2023-02-15T06:48:21;102120.44;;;19.09;34.12
77975;BME280;67164;51.202;0.278;2023-02-15T06:50:47;102121.21;;;19.09;34.07
77975;BME280;67164;51.202;0.278;2023-02-15T06:53:13;102122.81;;;19.33;34.09
77975;BME280;67164;51.202;0.278;2023-02-15T06:55:37;102117.39;;;18.81;34.14
77975;BME280;67164;51.202;0.278;2023-02-15T06:58:03;102119.37;;;19.06;34.14
77975;BME280;67164;51.202;0.278;2023-02-15T07:00:29;102122.56;;;19.29;34.16
77975;BME280;67164;51.202;0.278;2023-02-15T07:02:54;102124.43;;;18.99;34.13
77975;BME280;67164;51.202;0.278;2023-02-15T07:05:20;102128.10;;;19.18;34.20
77975;BME280;67164;51.202;0.278;2023-02-15T07:07:45;102126.37;;;18.84;34.23
77975;BME280;67164;51.202;0.278;2023-02-15T07:10:11;102125.55;;;19.11;34.14
77975;BME280;67164;51.202;0.278;2023-02-15T07:12:36;102125.76;;;19.13;34.12
77975;BME280;67164;51.202;0.278;2023-02-15T07:15:02;102128.11;;;19.05;34.37
77975;BME280;67164;51.202;0.278;2023-02-15T07:17:27;102133.14;;;19.12;34.18
77975;BME280;67164;51.202;0.278;2023-02-15T07:19:52;102125.19;;;18.87;34.23
77975;BME280;67164;51.202;0.278;2023-02-15T07:22:17;102125.43;;;18.86;34.09
77975;BME280;67164;51.202;0.278;2023-02-15T07:24:43;102123.65;;;18.87;34.08
77975;BME280;67164;51.202;0.278;2023-02-15T07:27:08;102127.01;;;18.88;34.12
77975;BME280;67164;51.202;0.278;2023-02-15T07:29:33;102126.07;;;19.20;34.04
77975;BME280;67164;51.202;0.278;2023-02-15T07:31:59;102126.04;;;19.19;34.02
77975;BME280;67164;51.202;0.278;2023-02-15T07:34:24;102131.70;;;19.18;34.06
77975;BME280;67164;51.202;0.278;2023-02-15T07:36:50;102131.92;;;18.66;34.00
77975;BME280;67164;51.202;0.278;2023-02-15T07:39:15;102139.53;;;19.09;34.03
77975;BME280;67164;51.202;0.278;2023-02-15T07:41:41;102135.87;;;18.96;34.10
77975;BME280;67164;51.202;0.278;2023-02-15T07:44:11;102138.24;;;18.96;34.19
77975;BME280;67164;51.202;0.278;2023-02-15T07:46:31;102138.44;;;18.70;34.15
77975;BME280;67164;51.202;0.278;2023-02-15T07:48:56;102136.39;;;18.94;34.13
77975;BME280;67164;51.202;0.278;2023-02-15T07:51:22;102134.29;;;18.91;34.18
77975;BME280;67164;51.202;0.278;2023-02-15T07:53:47;102131.83;;;18.67;34.18
77975;BME280;67164;51.202;0.278;2023-02-15T07:56:14;102135.74;;;18.66;34.13
77975;BME280;67164;51.202;0.278;2023-02-15T07:58:38;102147.12;;;18.84;34.28
77975;BME280;67164;51.202;0.278;2023-02-15T08:01:03;102151.02;;;18.85;34.14
77975;BME280;67164;51.202;0.278;2023-02-15T08:03:28;102153.47;;;18.85;34.06
77975;BME280;67164;51.202;0.278;2023-02-15T08:05:57;102154.47;;;18.87;34.20
77975;BME280;67164;51.202;0.278;2023-02-15T08:08:18;102153.97;;;18.91;34.09
77975;BME280;67164;51.202;0.278;2023-02-15T08:10:49;102150.26;;;18.65;34.11
77975;BME280;67164;51.202;0.278;2023-02-15T08:13:09;102147.00;;;18.87;34.20
77975;BME280;67164;51.202;0.278;2023-02-15T08:15:35;102143.50;;;18.84;34.06
77975;BME280;67164;51.202;0.278;2023-02-15T08:17:59;102145.04;;;18.84;34.11
77975;BME280;67164;51.202;0.278;2023-02-15T08:20:24;102139.54;;;18.87;34.19
77975;BME280;67164;51.202;0.278;2023-02-15T08:22:49;102139.57;;;18.79;34.02
77975;BME280;67164;51.202;0.278;2023-02-15T08:25:15;102141.89;;;18.81;34.13
77975;BME280;67164;51.202;0.278;2023-02-15T08:27:40;102143.98;;;19.26;34.13
77975;BME280;67164;51.202;0.278;2023-02-15T08:30:07;102145.47;;;19.30;34.24
77975;BME280;67164;51.202;0.278;2023-02-15T08:32:31;102148.43;;;18.85;34.37
77975;BME280;67164;51.202;0.278;2023-02-15T08:34:56;102153.02;;;18.80;34.60
77975;BME280;67164;51.202;0.278;2023-02-15T08:37:22;102150.71;;;17.71;35.13
77975;BME280;67164;51.202;0.278;2023-02-15T08:39:47;102150.83;;;18.64;34.51
77975;BME280;67164;51.202;0.278;2023-02-15T08:42:12;102151.42;;;18.33;34.56
77975;BME280;67164;51.202;0.278;2023-02-15T08:44:38;102148.74;;;18.69;34.23
77975;BME280;67164;51.202;0.278;2023-02-15T08:47:03;102147.64;;;18.42;34.13
77975;BME280;67164;51.202;0.278;2023-02-15T08:49:29;102147.65;;;18.10;34.27
77975;BME280;67164;51.202;0.278;2023-02-15T08:51:54;102147.63;;;18.38;34.21
77975;BME280;67164;51.202;0.278;2023-02-15T08:54:20;102143.04;;;18.75;34.04
77975;BME280;67164;51.202;0.278;2023-02-15T08:56:45;102143.50;;;18.40;34.43
77975;BME280;67164;51.202;0.278;2023-02-15T08:59:18;102145.40;;;18.23;34.81
77975;BME280;67164;51.202;0.278;2023-02-15T09:01:36;102144.66;;;18.00;35.54
77975;BME280;67164;51.202;0.278;2023-02-15T09:04:02;102141.17;;;17.98;35.81
77975;BME280;67164;51.202;0.278;2023-02-15T09:06:26;102142.61;;;17.82;36.54
77975;BME280;67164;51.202;0.278;2023-02-15T09:08:51;102146.02;;;18.14;36.16
77975;BME280;67164;51.202;0.278;2023-02-15T09:11:18;102139.42;;;18.32;35.77
77975;BME280;67164;51.202;0.278;2023-02-15T09:13:42;102138.65;;;18.54;35.83
77975;BME280;67164;51.202;0.278;2023-02-15T09:16:09;102141.76;;;18.29;36.04
77975;BME280;67164;51.202;0.278;2023-02-15T09:18:33;102138.58;;;18.67;36.04
77975;BME280;67164;51.202;0.278;2023-02-15T09:21:04;102139.39;;;18.68;36.20
77975;BME280;67164;51.202;0.278;2023-02-15T09:23:23;102132.06;;;18.93;35.99
77975;BME280;67164;51.202;0.278;2023-02-15T09:25:48;102131.89;;;19.09;35.99
77975;BME280;67164;51.202;0.278;2023-02-15T09:28:14;102129.96;;;18.95;35.83
77975;BME280;67164;51.202;0.278;2023-02-15T09:30:40;102124.12;;;18.95;35.60
77975;BME280;67164;51.202;0.278;2023-02-15T09:33:05;102121.23;;;19.28;35.47
77975;BME280;67164;51.202;0.278;2023-02-15T09:35:30;102122.80;;;19.40;35.31
77975;BME280;67164;51.202;0.278;2023-02-15T09:37:56;102128.05;;;19.14;35.53
77975;BME280;67164;51.202;0.278;2023-02-15T09:40:22;102130.33;;;19.78;35.18
77975;BME280;67164;51.202;0.278;2023-02-15T09:43:02;102127.52;;;19.56;35.08
77975;BME280;67164;51.202;0.278;2023-02-15T09:45:23;102128.64;;;19.84;35.16
77975;BME280;67164;51.202;0.278;2023-02-15T09:47:49;102124.43;;;19.61;34.69
77975;BME280;67164;51.202;0.278;2023-02-15T09:50:07;102130.33;;;20.01;34.60
77975;BME280;67164;51.202;0.278;2023-02-15T09:52:36;102132.33;;;20.23;34.37
77975;BME280;67164;51.202;0.278;2023-02-15T09:55:06;102137.44;;;20.49;34.28
77975;BME280;67164;51.202;0.278;2023-02-15T09:57:24;102136.74;;;20.05;34.24
77975;BME280;67164;51.202;0.278;2023-02-15T09:59:50;102135.49;;;20.41;34.08
77975;BME280;67164;51.202;0.278;2023-02-15T10:02:19;102134.72;;;20.15;34.16
77975;BME280;67164;51.202;0.278;2023-02-15T10:04:46;102130.20;;;20.35;34.23
77975;BME280;67164;51.202;0.278;2023-02-15T10:07:07;102126.54;;;20.55;34.27
77975;BME280;67164;51.202;0.278;2023-02-15T10:09:39;102131.68;;;19.99;34.23
77975;BME280;67164;51.202;0.278;2023-02-15T10:12:01;102132.55;;;20.27;34.23
77975;BME280;67164;51.202;0.278;2023-02-15T10:14:28;102132.01;;;20.18;34.01
77975;BME280;67164;51.202;0.278;2023-02-15T10:16:49;102129.40;;;20.25;33.89
77975;BME280;67164;51.202;0.278;2023-02-15T10:19:11;102125.19;;;20.30;34.06
77975;BME280;67164;51.202;0.278;2023-02-15T10:21:44;102121.43;;;20.40;33.59
77975;BME280;67164;51.202;0.278;2023-02-15T10:24:14;102119.70;;;20.20;33.96
77975;BME280;67164;51.202;0.278;2023-02-15T10:26:28;102121.58;;;20.53;33.84
77975;BME280;67164;51.202;0.278;2023-02-15T10:28:51;102120.97;;;20.56;33.75
77975;BME280;67164;51.202;0.278;2023-02-15T10:31:22;102122.50;;;20.64;33.81
77975;BME280;67164;51.202;0.278;2023-02-15T10:33:41;102121.79;;;20.77;33.86
77975;BME280;67164;51.202;0.278;2023-02-15T10:38:33;102119.98;;;20.49;34.21
77975;BME280;67164;51.202;0.278;2023-02-15T10:41:04;102122.74;;;20.71;34.23
77975;BME280;67164;51.202;0.278;2023-02-15T10:43:33;102120.29;;;20.80;34.34
77975;BME280;67164;51.202;0.278;2023-02-15T10:45:53;102116.10;;;21.38;34.00
77975;BME280;67164;51.202;0.278;2023-02-15T10:48:22;102118.40;;;20.86;34.37
77975;BME280;67164;51.202;0.278;2023-02-15T10:50:47;102118.71;;;20.83;34.18
77975;BME280;67164;51.202;0.278;2023-02-15T10:53:10;102113.29;;;20.95;34.09
77975;BME280;67164;51.202;0.278;2023-02-15T10:55:37;102115.68;;;20.99;34.31
77975;BME280;67164;51.202;0.278;2023-02-15T10:57:57;102114.68;;;21.04;34.26
77975;BME280;67164;51.202;0.278;2023-02-15T11:00:21;102115.71;;;21.29;34.05
77975;BME280;67164;51.202;0.278;2023-02-15T11:02:53;102114.04;;;21.00;34.31
77975;BME280;67164;51.202;0.278;2023-02-15T11:05:17;102109.47;;;21.46;34.07
77975;BME280;67164;51.202;0.278;2023-02-15T11:07:38;102109.31;;;21.03;33.95
77975;BME280;67164;51.202;0.278;2023-02-15T11:10:10;102108.30;;;21.06;34.03
77975;BME280;67164;51.202;0.278;2023-02-15T11:12:27;102113.92;;;21.21;34.15
77975;BME280;67164;51.202;0.278;2023-02-15T11:14:55;102108.65;;;21.03;34.15
77975;BME280;67164;51.202;0.278;2023-02-15T11:17:19;102106.77;;;21.31;33.90
77975;BME280;67164;51.202;0.278;2023-02-15T11:19:53;102104.01;;;21.09;34.13
77975;BME280;67164;51.202;0.278;2023-02-15T11:22:10;102102.14;;;21.13;34.07
77975;BME280;67164;51.202;0.278;2023-02-15T11:24:38;102100.82;;;21.45;33.94
77975;BME280;67164;51.202;0.278;2023-02-15T11:27:02;102097.72;;;21.43;34.00
77975;BME280;67164;51.202;0.278;2023-02-15T11:29:26;102094.81;;;21.78;33.78
77975;BME280;67164;51.202;0.278;2023-02-15T11:31:53;102093.82;;;21.69;33.97
77975;BME280;67164;51.202;0.278;2023-02-15T11:34:20;102095.92;;;22.05;33.69
77975;BME280;67164;51.202;0.278;2023-02-15T11:36:41;102097.72;;;21.93;34.05
77975;BME280;67164;51.202;0.278;2023-02-15T11:39:10;102092.24;;;21.95;34.29
77975;BME280;67164;51.202;0.278;2023-02-15T11:41:36;102084.30;;;22.18;34.08
77975;BME280;67164;51.202;0.278;2023-02-15T11:43:59;102080.95;;;22.31;33.34
77975;BME280;67164;51.202;0.278;2023-02-15T11:46:21;102077.03;;;22.19;33.45
77975;BME280;67164;51.202;0.278;2023-02-15T11:48:50;102073.75;;;22.05;33.26
77975;BME280;67164;51.202;0.278;2023-02-15T11:51:14;102073.14;;;22.33;33.43
77975;BME280;67164;51.202;0.278;2023-02-15T11:53:38;102069.53;;;22.48;33.36
77975;BME280;67164;51.202;0.278;2023-02-15T11:56:03;102064.83;;;22.12;33.56
77975;BME280;67164;51.202;0.278;2023-02-15T11:58:31;102059.24;;;22.29;33.47
77975;BME280;67164;51.202;0.278;2023-02-15T12:00:57;102050.92;;;21.98;33.91
77975;BME280;67164;51.202;0.278;2023-02-15T12:03:22;102040.87;;;22.35;33.48
77975;BME280;67164;51.202;0.278;2023-02-15T12:05:46;102038.11;;;22.12;33.38
77975;BME280;67164;51.202;0.278;2023-02-15T12:08:16;102032.42;;;21.74;33.49
77975;BME280;67164;51.202;0.278;2023-02-15T12:10:38;102027.20;;;22.11;33.52
77975;BME280;67164;51.202;0.278;2023-02-15T12:13:09;102020.92;;;22.06;33.84
77975;BME280;67164;51.202;0.278;2023-02-15T12:15:31;102022.20;;;22.28;33.62
77975;BME280;67164;51.202;0.278;2023-02-15T12:17:52;102011.28;;;22.08;33.82
77975;BME280;67164;51.202;0.278;2023-02-15T12:20:21;102007.96;;;22.22;33.77
77975;BME280;67164;51.202;0.278;2023-02-15T12:22:48;102004.33;;;22.58;33.47
77975;BME280;67164;51.202;0.278;2023-02-15T12:27:33;101999.86;;;22.14;34.77
77975;BME280;67164;51.202;0.278;2023-02-15T12:30:00;102000.91;;;21.48;35.71
77975;BME280;67164;51.202;0.278;2023-02-15T12:32:26;101998.19;;;21.43;36.14
77975;BME280;67164;51.202;0.278;2023-02-15T12:34:59;101995.84;;;21.48;36.97
77975;BME280;67164;51.202;0.278;2023-02-15T12:37:17;101994.28;;;21.39;36.75
77975;BME280;67164;51.202;0.278;2023-02-15T12:42:14;101997.75;;;22.26;35.50
77975;BME280;67164;51.202;0.278;2023-02-15T12:44:32;101999.60;;;22.31;35.71
77975;BME280;67164;51.202;0.278;2023-02-15T12:46:59;102001.67;;;21.72;36.32
77975;BME280;67164;51.202;0.278;2023-02-15T12:49:22;102004.27;;;22.56;34.75
77975;BME280;67164;51.202;0.278;2023-02-15T12:51:50;101996.39;;;22.00;35.41
77975;BME280;67164;51.202;0.278;2023-02-15T12:54:29;101994.58;;;22.00;35.25
77975;BME280;67164;51.202;0.278;2023-02-15T12:56:39;102001.65;;;21.41;36.24